sensor_id;sensor_type;location;lat;lon;timestamp;P1;P2;P0
53658;PMS5003;41524;35.624;139.698;2023-12-20T00:00:10;31.00;30.00;
53658;PMS5003;41524;35.624;139.698;2023-12-20T00:05:08;26.00;24.00;
53658;PMS5003;41524;35.624;139.698;2023-12-20T00:10:10;26.00;24.00;
53658;PMS5003;41524;35.624;139.698;2023-12-20T00:15:10;36.00;33.00;
53658;PMS5003;41524;35.624;139.698;2023-12-20T00:20:11;29.00;28.00;
53658;PMS5003;41524;35.624;139.698;2023-12-20T00:25:10;29.00;26.00;
53658;PMS5003;41524;35.624;139.698;2023-12-20T00:30:09;38.00;36.00;
53658;PMS5003;41524;35.624;139.698;2023-12-20T00:35:08;34.00;30.00;
53658;PMS5003;41524;35.624;139.698;2023-12-20T00:40:09;31.00;31.00;
53658;PMS5003;41524;35.624;139.698;2023-12-20T00:45:10;36.00;33.00;
53658;PMS5003;41524;35.624;139.698;2023-12-20T00:50:10;31.00;30.00;
53658;PMS5003;41524;35.624;139.698;2023-12-20T00:55:09;32.00;32.00;
53658;PMS5003;41524;35.624;139.698;2023-12-20T01:00:10;34.00;32.00;
53658;PMS5003;41524;35.624;139.698;2023-12-20T01:05:09;33.00;32.00;
53658;PMS5003;41524;35.624;139.698;2023-12-20T01:10:09;31.00;28.00;
53658;PMS5003;41524;35.624;139.698;2023-12-20T01:15:09;35.00;35.00;
53658;PMS5003;41524;35.624;139.698;2023-12-20T01:20:10;34.00;34.00;
53658;PMS5003;41524;35.624;139.698;2023-12-20T01:25:10;42.00;39.00;
53658;PMS5003;41524;35.624;139.698;2023-12-20T01:30:10;31.00;28.00;
53658;PMS5003;41524;35.624;139.698;2023-12-20T01:35:09;40.00;37.00;
53658;PMS5003;41524;35.624;139.698;2023-12-20T01:40:20;28.00;28.00;
53658;PMS5003;41524;35.624;139.698;2023-12-20T01:45:09;41.00;38.00;
53658;PMS5003;41524;35.624;139.698;2023-12-20T01:50:09;42.00;37.00;
53658;PMS5003;41524;35.624;139.698;2023-12-20T01:55:08;27.00;24.00;
53658;PMS5003;41524;35.624;139.698;2023-12-20T02:00:09;32.00;32.00;
53658;PMS5003;41524;35.624;139.698;2023-12-20T02:05:10;30.00;28.00;
53658;PMS5003;41524;35.624;139.698;2023-12-20T02:10:09;23.00;21.00;
53658;PMS5003;41524;35.624;139.698;2023-12-20T02:15:09;33.00;30.00;
53658;PMS5003;41524;35.624;139.698;2023-12-20T02:20:09;35.00;31.00;
53658;PMS5003;41524;35.624;139.698;2023-12-20T02:25:10;25.00;24.00;
53658;PMS5003;41524;35.624;139.698;2023-12-20T02:30:09;31.00;30.00;
53658;PMS5003;41524;35.624;139.698;2023-12-20T02:35:09;28.00;25.00;
53658;PMS5003;41524;35.624;139.698;2023-12-20T02:40:09;29.00;27.00;
53658;PMS5003;41524;35.624;139.698;2023-12-20T02:45:09;26.00;23.00;
53658;PMS5003;41524;35.624;139.698;2023-12-20T02:50:09;29.00;25.00;
53658;PMS5003;41524;35.624;139.698;2023-12-20T02:55:09;24.00;22.00;
53658;PMS5003;41524;35.624;139.698;2023-12-20T03:00:09;28.00;26.00;
53658;PMS5003;41524;35.624;139.698;2023-12-20T03:05:10;20.00;18.00;
53658;PMS5003;41524;35.624;139.698;2023-12-20T03:10:09;26.00;22.00;
53658;PMS5003;41524;35.624;139.698;2023-12-20T03:15:10;27.00;25.00;
53658;PMS5003;41524;35.624;139.698;2023-12-20T03:20:09;30.00;27.00;
53658;PMS5003;41524;35.624;139.698;2023-12-20T03:25:09;28.00;23.00;
53658;PMS5003;41524;35.624;139.698;2023-12-20T03:30:09;24.00;24.00;
53658;PMS5003;41524;35.624;139.698;2023-12-20T03:35:09;31.00;30.00;
53658;PMS5003;41524;35.624;139.698;2023-12-20T03:40:12;24.00;23.00;
53658;PMS5003;41524;35.624;139.698;2023-12-20T03:45:09;36.00;32.00;
53658;PMS5003;41524;35.624;139.698;2023-12-20T03:50:09;20.00;19.00;
53658;PMS5003;41524;35.624;139.698;2023-12-20T03:55:09;13.00;12.00;
53658;PMS5003;41524;35.624;139.698;2023-12-20T04:00:10;25.00;25.00;
53658;PMS5003;41524;35.624;139.698;2023-12-20T04:05:10;41.00;40.00;
53658;PMS5003;41524;35.624;139.698;2023-12-20T04:10:09;50.00;45.00;
53658;PMS5003;41524;35.624;139.698;2023-12-20T04:15:09;57.00;48.00;
53658;PMS5003;41524;35.624;139.698;2023-12-20T04:20:09;51.00;48.00;
53658;PMS5003;41524;35.624;139.698;2023-12-20T04:25:09;65.00;60.00;
53658;PMS5003;41524;35.624;139.698;2023-12-20T04:30:09;71.00;62.00;
53658;PMS5003;41524;35.624;139.698;2023-12-20T04:35:10;58.00;56.00;
53658;PMS5003;41524;35.624;139.698;2023-12-20T04:40:09;59.00;56.00;
53658;PMS5003;41524;35.624;139.698;2023-12-20T04:45:09;62.00;57.00;
53658;PMS5003;41524;35.624;139.698;2023-12-20T04:50:09;58.00;53.00;
53658;PMS5003;41524;35.624;139.698;2023-12-20T04:55:10;45.00;45.00;
53658;PMS5003;41524;35.624;139.698;2023-12-20T05:00:09;56.00;52.00;
53658;PMS5003;41524;35.624;139.698;2023-12-20T05:05:09;53.00;46.00;
53658;PMS5003;41524;35.624;139.698;2023-12-20T05:10:10;53.00;50.00;
53658;PMS5003;41524;35.624;139.698;2023-12-20T05:15:09;61.00;56.00;
53658;PMS5003;41524;35.624;139.698;2023-12-20T05:20:10;59.00;54.00;
53658;PMS5003;41524;35.624;139.698;2023-12-20T05:25:09;62.00;59.00;
53658;PMS5003;41524;35.624;139.698;2023-12-20T05:30:11;51.00;48.00;
53658;PMS5003;41524;35.624;139.698;2023-12-20T05:35:10;59.00;55.00;
53658;PMS5003;41524;35.624;139.698;2023-12-20T05:40:10;70.00;60.00;
53658;PMS5003;41524;35.624;139.698;2023-12-20T05:45:10;58.00;53.00;
53658;PMS5003;41524;35.624;139.698;2023-12-20T05:50:09;58.00;54.00;
53658;PMS5003;41524;35.624;139.698;2023-12-20T05:55:08;53.00;50.00;
53658;PMS5003;41524;35.624;139.698;2023-12-20T06:00:09;60.00;53.00;
53658;PMS5003;41524;35.624;139.698;2023-12-20T06:05:09;63.00;58.00;
53658;PMS5003;41524;35.624;139.698;2023-12-20T06:10:10;55.00;52.00;
53658;PMS5003;41524;35.624;139.698;2023-12-20T06:15:09;57.00;52.00;
53658;PMS5003;41524;35.624;139.698;2023-12-20T06:20:10;57.00;55.00;
53658;PMS5003;41524;35.624;139.698;2023-12-20T06:25:09;62.00;57.00;
53658;PMS5003;41524;35.624;139.698;2023-12-20T06:30:09;68.00;57.00;
53658;PMS5003;41524;35.624;139.698;2023-12-20T06:35:09;59.00;54.00;
53658;PMS5003;41524;35.624;139.698;2023-12-20T06:40:10;53.00;52.00;
53658;PMS5003;41524;35.624;139.698;2023-12-20T06:45:10;55.00;54.00;
53658;PMS5003;41524;35.624;139.698;2023-12-20T06:50:09;63.00;62.00;
53658;PMS5003;41524;35.624;139.698;2023-12-20T06:55:10;53.00;52.00;
53658;PMS5003;41524;35.624;139.698;2023-12-20T07:00:10;69.00;62.00;
53658;PMS5003;41524;35.624;139.698;2023-12-20T07:05:09;60.00;55.00;
53658;PMS5003;41524;35.624;139.698;2023-12-20T07:10:09;60.00;56.00;
53658;PMS5003;41524;35.624;139.698;2023-12-20T07:15:10;58.00;54.00;
53658;PMS5003;41524;35.624;139.698;2023-12-20T07:20:09;63.00;57.00;
53658;PMS5003;41524;35.624;139.698;2023-12-20T07:25:09;67.00;62.00;
53658;PMS5003;41524;35.624;139.698;2023-12-20T07:30:10;55.00;54.00;
53658;PMS5003;41524;35.624;139.698;2023-12-20T07:35:08;54.00;49.00;
53658;PMS5003;41524;35.624;139.698;2023-12-20T07:40:09;65.00;60.00;
53658;PMS5003;41524;35.624;139.698;2023-12-20T07:45:09;58.00;55.00;
53658;PMS5003;41524;35.624;139.698;2023-12-20T07:50:09;70.00;57.00;
53658;PMS5003;41524;35.624;139.698;2023-12-20T07:55:09;61.00;57.00;
53658;PMS5003;41524;35.624;139.698;2023-12-20T08:00:10;59.00;54.00;
53658;PMS5003;41524;35.624;139.698;2023-12-20T08:05:08;63.00;58.00;
53658;PMS5003;41524;35.624;139.698;2023-12-20T08:10:09;57.00;51.00;
53658;PMS5003;41524;35.624;139.698;2023-12-20T08:15:09;60.00;50.00;
53658;PMS5003;41524;35.624;139.698;2023-12-20T08:20:10;52.00;48.00;
53658;PMS5003;41524;35.624;139.698;2023-12-20T08:25:11;60.00;54.00;
53658;PMS5003;41524;35.624;139.698;2023-12-20T08:30:10;57.00;54.00;
53658;PMS5003;41524;35.624;139.698;2023-12-20T08:35:10;58.00;54.00;
53658;PMS5003;41524;35.624;139.698;2023-12-20T08:40:09;58.00;51.00;
53658;PMS5003;41524;35.624;139.698;2023-12-20T08:45:10;62.00;58.00;
53658;PMS5003;41524;35.624;139.698;2023-12-20T08:50:09;58.00;51.00;
53658;PMS5003;41524;35.624;139.698;2023-12-20T08:55:09;51.00;48.00;
53658;PMS5003;41524;35.624;139.698;2023-12-20T09:00:09;48.00;43.00;
53658;PMS5003;41524;35.624;139.698;2023-12-20T09:05:09;53.00;46.00;
53658;PMS5003;41524;35.624;139.698;2023-12-20T09:10:09;39.00;37.00;
53658;PMS5003;41524;35.624;139.698;2023-12-20T09:15:09;46.00;43.00;
53658;PMS5003;41524;35.624;139.698;2023-12-20T09:20:09;50.00;44.00;
53658;PMS5003;41524;35.624;139.698;2023-12-20T09:25:09;38.00;35.00;
53658;PMS5003;41524;35.624;139.698;2023-12-20T09:30:11;45.00;41.00;
53658;PMS5003;41524;35.624;139.698;2023-12-20T09:35:13;40.00;37.00;
53658;PMS5003;41524;35.624;139.698;2023-12-20T09:40:48;47.00;40.00;
53658;PMS5003;41524;35.624;139.698;2023-12-20T09:45:09;38.00;33.00;
53658;PMS5003;41524;35.624;139.698;2023-12-20T09:50:09;42.00;39.00;
53658;PMS5003;41524;35.624;139.698;2023-12-20T09:55:09;47.00;42.00;
53658;PMS5003;41524;35.624;139.698;2023-12-20T10:00:11;34.00;33.00;
53658;PMS5003;41524;35.624;139.698;2023-12-20T10:05:15;35.00;30.00;
53658;PMS5003;41524;35.624;139.698;2023-12-20T10:10:09;40.00;37.00;
53658;PMS5003;41524;35.624;139.698;2023-12-20T10:15:09;37.00;35.00;
53658;PMS5003;41524;35.624;139.698;2023-12-20T10:20:10;40.00;37.00;
53658;PMS5003;41524;35.624;139.698;2023-12-20T10:25:10;36.00;34.00;
53658;PMS5003;41524;35.624;139.698;2023-12-20T10:30:10;39.00;37.00;
53658;PMS5003;41524;35.624;139.698;2023-12-20T10:35:10;36.00;35.00;
53658;PMS5003;41524;35.624;139.698;2023-12-20T10:40:10;41.00;41.00;
53658;PMS5003;41524;35.624;139.698;2023-12-20T10:45:09;41.00;38.00;
53658;PMS5003;41524;35.624;139.698;2023-12-20T10:50:09;37.00;37.00;
53658;PMS5003;41524;35.624;139.698;2023-12-20T10:55:10;42.00;40.00;
53658;PMS5003;41524;35.624;139.698;2023-12-20T11:00:10;37.00;35.00;
53658;PMS5003;41524;35.624;139.698;2023-12-20T11:05:13;39.00;34.00;
53658;PMS5003;41524;35.624;139.698;2023-12-20T11:10:13;39.00;37.00;
53658;PMS5003;41524;35.624;139.698;2023-12-20T11:15:10;38.00;36.00;
53658;PMS5003;41524;35.624;139.698;2023-12-20T11:20:10;39.00;35.00;
53658;PMS5003;41524;35.624;139.698;2023-12-20T11:25:14;44.00;39.00;
53658;PMS5003;41524;35.624;139.698;2023-12-20T11:30:10;44.00;42.00;
53658;PMS5003;41524;35.624;139.698;2023-12-20T11:35:25;38.00;33.00;
53658;PMS5003;41524;35.624;139.698;2023-12-20T11:40:11;50.00;47.00;
53658;PMS5003;41524;35.624;139.698;2023-12-20T11:45:09;48.00;45.00;
53658;PMS5003;41524;35.624;139.698;2023-12-20T11:50:10;52.00;47.00;
53658;PMS5003;41524;35.624;139.698;2023-12-20T11:55:09;46.00;43.00;
53658;PMS5003;41524;35.624;139.698;2023-12-20T12:00:09;54.00;52.00;
53658;PMS5003;41524;35.624;139.698;2023-12-20T12:05:09;72.00;64.00;
53658;PMS5003;41524;35.624;139.698;2023-12-20T12:10:08;50.00;49.00;
53658;PMS5003;41524;35.624;139.698;2023-12-20T12:15:09;55.00;55.00;
53658;PMS5003;41524;35.624;139.698;2023-12-20T12:20:09;53.00;49.00;
53658;PMS5003;41524;35.624;139.698;2023-12-20T12:25:10;45.00;45.00;
53658;PMS5003;41524;35.624;139.698;2023-12-20T12:30:09;48.00;43.00;
53658;PMS5003;41524;35.624;139.698;2023-12-20T12:35:08;52.00;47.00;
53658;PMS5003;41524;35.624;139.698;2023-12-20T12:40:10;54.00;52.00;
53658;PMS5003;41524;35.624;139.698;2023-12-20T12:45:09;53.00;51.00;
53658;PMS5003;41524;35.624;139.698;2023-12-20T12:50:09;51.00;47.00;
53658;PMS5003;41524;35.624;139.698;2023-12-20T12:55:08;56.00;55.00;
53658;PMS5003;41524;35.624;139.698;2023-12-20T13:00:10;51.00;48.00;
53658;PMS5003;41524;35.624;139.698;2023-12-20T13:05:09;61.00;59.00;
53658;PMS5003;41524;35.624;139.698;2023-12-20T13:10:09;65.00;61.00;
53658;PMS5003;41524;35.624;139.698;2023-12-20T13:15:09;71.00;63.00;
53658;PMS5003;41524;35.624;139.698;2023-12-20T13:20:09;65.00;57.00;
53658;PMS5003;41524;35.624;139.698;2023-12-20T13:25:09;69.00;62.00;
53658;PMS5003;41524;35.624;139.698;2023-12-20T13:30:08;74.00;64.00;
53658;PMS5003;41524;35.624;139.698;2023-12-20T13:35:09;72.00;65.00;
53658;PMS5003;41524;35.624;139.698;2023-12-20T13:40:09;60.00;59.00;
53658;PMS5003;41524;35.624;139.698;2023-12-20T13:45:10;77.00;69.00;
53658;PMS5003;41524;35.624;139.698;2023-12-20T13:50:09;64.00;60.00;
53658;PMS5003;41524;35.624;139.698;2023-12-20T13:55:09;72.00;65.00;
53658;PMS5003;41524;35.624;139.698;2023-12-20T14:05:09;77.00;65.00;
53658;PMS5003;41524;35.624;139.698;2023-12-20T14:10:10;58.00;53.00;
53658;PMS5003;41524;35.624;139.698;2023-12-20T14:15:09;64.00;58.00;
53658;PMS5003;41524;35.624;139.698;2023-12-20T14:20:09;58.00;55.00;
53658;PMS5003;41524;35.624;139.698;2023-12-20T14:25:10;51.00;48.00;
53658;PMS5003;41524;35.624;139.698;2023-12-20T14:30:10;55.00;46.00;
53658;PMS5003;41524;35.624;139.698;2023-12-20T14:35:10;66.00;59.00;
53658;PMS5003;41524;35.624;139.698;2023-12-20T14:40:10;59.00;53.00;
53658;PMS5003;41524;35.624;139.698;2023-12-20T14:45:09;48.00;44.00;
53658;PMS5003;41524;35.624;139.698;2023-12-20T14:50:09;55.00;51.00;
53658;PMS5003;41524;35.624;139.698;2023-12-20T14:55:10;56.00;51.00;
53658;PMS5003;41524;35.624;139.698;2023-12-20T15:00:09;53.00;45.00;
53658;PMS5003;41524;35.624;139.698;2023-12-20T15:05:08;54.00;53.00;
53658;PMS5003;41524;35.624;139.698;2023-12-20T15:10:10;50.00;45.00;
53658;PMS5003;41524;35.624;139.698;2023-12-20T15:15:09;54.00;51.00;
53658;PMS5003;41524;35.624;139.698;2023-12-20T15:20:09;51.00;45.00;
53658;PMS5003;41524;35.624;139.698;2023-12-20T15:25:09;41.00;40.00;
53658;PMS5003;41524;35.624;139.698;2023-12-20T15:30:10;52.00;50.00;
53658;PMS5003;41524;35.624;139.698;2023-12-20T15:35:09;52.00;44.00;
53658;PMS5003;41524;35.624;139.698;2023-12-20T15:40:10;54.00;51.00;
53658;PMS5003;41524;35.624;139.698;2023-12-20T15:45:09;53.00;50.00;
53658;PMS5003;41524;35.624;139.698;2023-12-20T15:50:09;56.00;53.00;
53658;PMS5003;41524;35.624;139.698;2023-12-20T15:55:09;58.00;53.00;
53658;PMS5003;41524;35.624;139.698;2023-12-20T16:00:09;47.00;41.00;
53658;PMS5003;41524;35.624;139.698;2023-12-20T16:05:09;53.00;52.00;
53658;PMS5003;41524;35.624;139.698;2023-12-20T16:10:09;55.00;43.00;
53658;PMS5003;41524;35.624;139.698;2023-12-20T16:15:30;56.00;53.00;
53658;PMS5003;41524;35.624;139.698;2023-12-20T16:20:09;54.00;47.00;
53658;PMS5003;41524;35.624;139.698;2023-12-20T16:25:09;49.00;45.00;
53658;PMS5003;41524;35.624;139.698;2023-12-20T16:30:09;45.00;40.00;
53658;PMS5003;41524;35.624;139.698;2023-12-20T16:35:10;49.00;43.00;
53658;PMS5003;41524;35.624;139.698;2023-12-20T16:40:24;49.00;48.00;
53658;PMS5003;41524;35.624;139.698;2023-12-20T16:45:08;40.00;36.00;
53658;PMS5003;41524;35.624;139.698;2023-12-20T16:50:09;42.00;38.00;
53658;PMS5003;41524;35.624;139.698;2023-12-20T16:55:10;32.00;30.00;
53658;PMS5003;41524;35.624;139.698;2023-12-20T17:00:09;29.00;29.00;
53658;PMS5003;41524;35.624;139.698;2023-12-20T17:05:10;26.00;26.00;
53658;PMS5003;41524;35.624;139.698;2023-12-20T17:10:09;27.00;24.00;
53658;PMS5003;41524;35.624;139.698;2023-12-20T17:15:09;21.00;20.00;
53658;PMS5003;41524;35.624;139.698;2023-12-20T17:20:09;13.00;12.00;
53658;PMS5003;41524;35.624;139.698;2023-12-20T17:25:09;11.00;10.00;
53658;PMS5003;41524;35.624;139.698;2023-12-20T17:30:09;9.00;8.00;
53658;PMS5003;41524;35.624;139.698;2023-12-20T17:35:09;10.00;9.00;
53658;PMS5003;41524;35.624;139.698;2023-12-20T17:40:09;14.00;11.00;
53658;PMS5003;41524;35.624;139.698;2023-12-20T17:45:09;12.00;11.00;
53658;PMS5003;41524;35.624;139.698;2023-12-20T17:50:10;15.00;13.00;
53658;PMS5003;41524;35.624;139.698;2023-12-20T17:55:09;13.00;12.00;
53658;PMS5003;41524;35.624;139.698;2023-12-20T18:00:12;17.00;13.00;
53658;PMS5003;41524;35.624;139.698;2023-12-20T18:05:09;20.00;20.00;
53658;PMS5003;41524;35.624;139.698;2023-12-20T18:10:09;21.00;21.00;
53658;PMS5003;41524;35.624;139.698;2023-12-20T18:15:09;26.00;26.00;
53658;PMS5003;41524;35.624;139.698;2023-12-20T18:20:09;21.00;18.00;
53658;PMS5003;41524;35.624;139.698;2023-12-20T18:25:09;20.00;16.00;
53658;PMS5003;41524;35.624;139.698;2023-12-20T18:30:15;15.00;15.00;
53658;PMS5003;41524;35.624;139.698;2023-12-20T18:35:10;11.00;11.00;
53658;PMS5003;41524;35.624;139.698;2023-12-20T18:40:10;14.00;10.00;
53658;PMS5003;41524;35.624;139.698;2023-12-20T18:45:09;11.00;11.00;
53658;PMS5003;41524;35.624;139.698;2023-12-20T18:50:08;8.00;8.00;
53658;PMS5003;41524;35.624;139.698;2023-12-20T18:55:09;14.00;11.00;
53658;PMS5003;41524;35.624;139.698;2023-12-20T19:00:42;8.00;8.00;
53658;PMS5003;41524;35.624;139.698;2023-12-20T19:05:09;11.00;9.00;
53658;PMS5003;41524;35.624;139.698;2023-12-20T19:10:09;7.00;7.00;
53658;PMS5003;41524;35.624;139.698;2023-12-20T19:15:10;8.00;7.00;
53658;PMS5003;41524;35.624;139.698;2023-12-20T19:20:09;11.00;11.00;
53658;PMS5003;41524;35.624;139.698;2023-12-20T19:25:09;7.00;6.00;
53658;PMS5003;41524;35.624;139.698;2023-12-20T19:30:11;6.00;6.00;
53658;PMS5003;41524;35.624;139.698;2023-12-20T19:35:10;6.00;6.00;
53658;PMS5003;41524;35.624;139.698;2023-12-20T19:40:11;7.00;6.00;
53658;PMS5003;41524;35.624;139.698;2023-12-20T19:45:10;5.00;5.00;
53658;PMS5003;41524;35.624;139.698;2023-12-20T19:50:09;10.00;7.00;
53658;PMS5003;41524;35.624;139.698;2023-12-20T19:55:11;5.00;5.00;
53658;PMS5003;41524;35.624;139.698;2023-12-20T20:00:10;6.00;6.00;
53658;PMS5003;41524;35.624;139.698;2023-12-20T20:05:09;6.00;6.00;
53658;PMS5003;41524;35.624;139.698;2023-12-20T20:10:10;7.00;7.00;
53658;PMS5003;41524;35.624;139.698;2023-12-20T20:15:10;6.00;6.00;
53658;PMS5003;41524;35.624;139.698;2023-12-20T20:20:10;9.00;8.00;
53658;PMS5003;41524;35.624;139.698;2023-12-20T20:25:09;9.00;9.00;
53658;PMS5003;41524;35.624;139.698;2023-12-20T20:30:08;10.00;7.00;
53658;PMS5003;41524;35.624;139.698;2023-12-20T20:35:10;6.00;6.00;
53658;PMS5003;41524;35.624;139.698;2023-12-20T20:40:10;7.00;7.00;
53658;PMS5003;41524;35.624;139.698;2023-12-20T20:45:09;7.00;5.00;
53658;PMS5003;41524;35.624;139.698;2023-12-20T20:50:09;9.00;9.00;
53658;PMS5003;41524;35.624;139.698;2023-12-20T20:55:09;8.00;8.00;
53658;PMS5003;41524;35.624;139.698;2023-12-20T21:00:15;8.00;8.00;
53658;PMS5003;41524;35.624;139.698;2023-12-20T21:05:09;8.00;8.00;
53658;PMS5003;41524;35.624;139.698;2023-12-20T21:10:10;8.00;7.00;
53658;PMS5003;41524;35.624;139.698;2023-12-20T21:15:09;5.00;5.00;
53658;PMS5003;41524;35.624;139.698;2023-12-20T21:20:10;16.00;14.00;
53658;PMS5003;41524;35.624;139.698;2023-12-20T21:25:10;11.00;8.00;
53658;PMS5003;41524;35.624;139.698;2023-12-20T21:30:09;6.00;6.00;
53658;PMS5003;41524;35.624;139.698;2023-12-20T21:35:09;10.00;7.00;
53658;PMS5003;41524;35.624;139.698;2023-12-20T21:40:10;6.00;5.00;
53658;PMS5003;41524;35.624;139.698;2023-12-20T21:45:10;7.00;7.00;
53658;PMS5003;41524;35.624;139.698;2023-12-20T21:50:14;13.00;12.00;
53658;PMS5003;41524;35.624;139.698;2023-12-20T21:55:10;7.00;6.00;
53658;PMS5003;41524;35.624;139.698;2023-12-20T22:00:16;7.00;5.00;
53658;PMS5003;41524;35.624;139.698;2023-12-20T22:05:10;8.00;8.00;
53658;PMS5003;41524;35.624;139.698;2023-12-20T22:10:09;9.00;9.00;
53658;PMS5003;41524;35.624;139.698;2023-12-20T22:15:10;7.00;7.00;
53658;PMS5003;41524;35.624;139.698;2023-12-20T22:20:10;7.00;7.00;
53658;PMS5003;41524;35.624;139.698;2023-12-20T22:25:09;8.00;7.00;
53658;PMS5003;41524;35.624;139.698;2023-12-20T22:30:10;6.00;6.00;
53658;PMS5003;41524;35.624;139.698;2023-12-20T22:35:09;8.00;8.00;
53658;PMS5003;41524;35.624;139.698;2023-12-20T22:40:10;7.00;7.00;
53658;PMS5003;41524;35.624;139.698;2023-12-20T22:45:09;10.00;9.00;
53658;PMS5003;41524;35.624;139.698;2023-12-20T22:50:10;9.00;9.00;
53658;PMS5003;41524;35.624;139.698;2023-12-20T22:55:09;6.00;6.00;
53658;PMS5003;41524;35.624;139.698;2023-12-20T23:00:10;6.00;6.00;
53658;PMS5003;41524;35.624;139.698;2023-12-20T23:05:09;7.00;6.00;
53658;PMS5003;41524;35.624;139.698;2023-12-20T23:10:09;9.00;9.00;
53658;PMS5003;41524;35.624;139.698;2023-12-20T23:15:09;7.00;7.00;
53658;PMS5003;41524;35.624;139.698;2023-12-20T23:20:09;8.00;8.00;
53658;PMS5003;41524;35.624;139.698;2023-12-20T23:25:09;4.00;4.00;
53658;PMS5003;41524;35.624;139.698;2023-12-20T23:30:09;6.00;5.00;
53658;PMS5003;41524;35.624;139.698;2023-12-20T23:35:09;6.00;6.00;
53658;PMS5003;41524;35.624;139.698;2023-12-20T23:40:09;6.00;6.00;
53658;PMS5003;41524;35.624;139.698;2023-12-20T23:45:09;4.00;4.00;
53658;PMS5003;41524;35.624;139.698;2023-12-20T23:50:10;5.00;5.00;
53658;PMS5003;41524;35.624;139.698;2023-12-20T23:55:09;6.00;6.00;
